aviador You're here:

KALI Decoded Metar

ALICE in TX, USA
Report Time2018-05-23 19:53:00
UTC Time2018-05-23 20:40:16
Flight Rules vfr VFR
Wind090° at 13 Gusting to 20 kt
W.Decomp.*RWY 13: 9.0 kt HW 9.4 kt LCW
RWY 17: 0.9 kt HW 13 kt LCW
W.Rank090° ranks 18
Current wind is above 090° avg. (7.0)
Visibility9999 m
Phenomena:N/A
Clouds:Scattered 050 Hf
Broken 060 Hf
Expected CloudBase > 5,600 ft AGL from Temp-Dew spread
Ceiling6,000 ft
Temp33°C (ISA +18)
Dew Point19°C (44% RH)
Heat Index34.7°C
AAT31.6°C
QNH1014 hPa
Density Alt2,523 ft
Elevation174 ft
Report Wrong Elevation
Raw Report
KALI 231953Z AUTO 09013G20KT 10SM SCT050 BKN060 33/19 A2993 RMK
AO2 SLP134 T03330189=

Extra information for KALI:More info

Metar Taf Metar & Taf Last 4 Metars F.Rules Stats Wind Profile Meteogram Temp Stats Airport Information Weather charts Add Link Nearby VenuesMetar ALERT Operation Metar Decoded Social comments

AIRNAV info for KALI